Time;durP1;ratioP1;P1;durP2;ratioP2;P2;SDS_P1;SDS_P2;PMS_P1;PMS_P2;Temp;Humidity;BMP_temperature;BMP_pressure;BME280_temperature;BME280_humidity;BME280_pressure;Samples;Min_cycle;Max_cycle;Signal;HPM_P1;HPM_P2
2021/12/14 00:02:17;;;;;;;;;17.75;17.75;;;;;;;;5057090;28;45552;-51
2021/12/14 00:04:43;;;;;;;;;18.50;18.00;;;;;;;;5059263;28;45366;-48
2021/12/14 00:07:13;;;;;;;;;20.25;17.50;;;;;;;;5059568;28;45574;-48
2021/12/14 00:09:40;;;;;;;;;24.75;21.00;;;;;;;;5060078;28;45546;-48
2021/12/14 00:17:26;;;;;;;;;19.75;18.25;;;;;;;;5059261;28;45177;-50
2021/12/14 00:19:53;;;;;;;;;19.50;17.00;;;;;;;;5059130;28;45456;-50
2021/12/14 00:24:53;;;;;;;;;19.50;16.75;;;;;;;;5058706;28;46076;-49
2021/12/14 00:27:19;;;;;;;;;21.50;18.25;;;;;;;;5059168;28;45525;-50
2021/12/14 00:29:46;;;;;;;;;15.00;14.75;;;;;;;;5059361;28;45509;-49
2021/12/14 00:32:17;;;;;;;;;18.75;16.25;;;;;;;;5059328;28;45322;-45
2021/12/14 00:34:43;;;;;;;;;16.75;14.50;;;;;;;;5058837;28;46502;-48
2021/12/14 00:37:11;;;;;;;;;12.25;12.25;;;;;;;;5058680;28;45242;-49
2021/12/14 00:39:37;;;;;;;;;11.00;10.50;;;;;;;;5058956;28;45353;-49
2021/12/14 00:42:03;;;;;;;;;14.50;14.50;;;;;;;;5058257;28;45582;-48
2021/12/14 00:44:29;;;;;;;;;13.00;11.25;;;;;;;;5058072;28;47410;-48
2021/12/14 00:46:54;;;;;;;;;16.50;13.25;;;;;;;;5058517;28;45421;-49
2021/12/14 00:49:19;;;;;;;;;14.75;13.25;;;;;;;;5059227;28;45471;-46
2021/12/14 00:51:45;;;;;;;;;14.25;13.25;;;;;;;;5059074;28;45341;-47
2021/12/14 00:54:12;;;;;;;;;14.00;12.50;;;;;;;;5058826;28;46124;-48
2021/12/14 00:56:38;;;;;;;;;11.50;11.50;;;;;;;;5058615;28;45233;-51
2021/12/14 00:59:05;;;;;;;;;7.75;7.75;;;;;;;;5058473;28;45337;-48
2021/12/14 01:01:32;;;;;;;;;14.25;11.50;;;;;;;;5058742;28;45553;-46
2021/12/14 01:04:00;;;;;;;;;5.50;5.50;;;;;;;;5058384;28;45553;-48
2021/12/14 01:06:28;;;;;;;;;13.25;11.25;;;;;;;;5058591;28;45213;-47
2021/12/14 01:08:54;;;;;;;;;13.50;12.25;;;;;;;;5057907;28;45406;-46
2021/12/14 01:11:22;;;;;;;;;12.25;11.25;;;;;;;;5058693;28;45462;-48
2021/12/14 01:13:56;;;;;;;;;16.00;9.50;;;;;;;;5058605;28;45565;-49
2021/12/14 01:16:32;;;;;;;;;10.00;9.50;;;;;;;;5058341;28;45348;-51
2021/12/14 01:19:13;;;;;;;;;9.75;8.00;;;;;;;;5058276;28;45405;-49
2021/12/14 01:27:08;;;;;;;;;11.50;11.50;;;;;;;;5058120;28;45313;-50
2021/12/14 01:29:34;;;;;;;;;7.50;6.50;;;;;;;;5058301;28;45428;-47
2021/12/14 01:32:01;;;;;;;;;9.25;9.25;;;;;;;;5057516;28;45359;-47
2021/12/14 01:34:30;;;;;;;;;14.00;12.50;;;;;;;;5058234;28;45432;-46
2021/12/14 01:36:58;;;;;;;;;15.00;13.00;;;;;;;;5058198;28;45248;-48
2021/12/14 01:42:05;;;;;;;;;11.50;11.00;;;;;;;;5057444;28;45383;-45
2021/12/14 01:44:34;;;;;;;;;17.00;14.00;;;;;;;;5057993;28;45404;-48
2021/12/14 01:47:03;;;;;;;;;10.00;7.50;;;;;;;;5057895;28;45369;-48
2021/12/14 01:49:29;;;;;;;;;10.50;10.50;;;;;;;;5058123;28;45301;-47
2021/12/14 01:51:56;;;;;;;;;13.00;10.00;;;;;;;;5057597;28;45408;-48
2021/12/14 01:54:23;;;;;;;;;7.00;7.00;;;;;;;;5057624;28;45283;-45
2021/12/14 01:56:48;;;;;;;;;10.00;10.00;;;;;;;;5057484;28;45784;-48
2021/12/14 01:59:17;;;;;;;;;12.75;9.75;;;;;;;;5057881;28;45379;-48
2021/12/14 02:01:53;;;;;;;;;14.50;9.50;;;;;;;;5057776;28;45584;-48
2021/12/14 02:04:20;;;;;;;;;10.25;10.25;;;;;;;;5055855;28;47597;-48
2021/12/14 02:06:52;;;;;;;;;11.00;11.00;;;;;;;;5057712;28;45455;-48
2021/12/14 02:09:18;;;;;;;;;7.50;7.00;;;;;;;;5057642;28;45279;-49
2021/12/14 02:11:46;;;;;;;;;9.50;7.50;;;;;;;;5057605;28;45547;-47
2021/12/14 02:14:11;;;;;;;;;13.50;10.00;;;;;;;;5057075;28;45279;-48
2021/12/14 02:16:37;;;;;;;;;11.00;11.00;;;;;;;;5057385;28;45373;-45
2021/12/14 02:19:04;;;;;;;;;11.50;11.00;;;;;;;;5057700;28;45406;-47
2021/12/14 02:21:30;;;;;;;;;12.00;12.00;;;;;;;;5057583;28;45216;-47
2021/12/14 02:23:56;;;;;;;;;10.75;10.75;;;;;;;;5057065;28;45326;-48
2021/12/14 02:26:25;;;;;;;;;14.75;13.75;;;;;;;;5056337;28;45358;-51
2021/12/14 02:28:51;;;;;;;;;13.75;13.00;;;;;;;;5057461;28;45453;-50
2021/12/14 02:31:18;;;;;;;;;12.00;10.50;;;;;;;;5057356;28;45342;-49
2021/12/14 02:33:46;;;;;;;;;14.75;12.25;;;;;;;;5057175;28;46149;-47
2021/12/14 02:36:13;;;;;;;;;17.25;16.50;;;;;;;;5056918;28;45377;-46
2021/12/14 02:38:42;;;;;;;;;16.75;13.25;;;;;;;;5057318;28;45333;-50
2021/12/14 02:41:08;;;;;;;;;18.00;17.00;;;;;;;;5055775;28;45381;-47
2021/12/14 02:43:36;;;;;;;;;17.50;15.50;;;;;;;;5056905;28;46098;-47
2021/12/14 02:46:04;;;;;;;;;17.50;16.00;;;;;;;;5057199;28;45453;-46
2021/12/14 02:48:30;;;;;;;;;14.25;13.00;;;;;;;;5056492;28;45445;-47
2021/12/14 02:50:55;;;;;;;;;15.75;15.75;;;;;;;;5056892;28;45521;-45
2021/12/14 02:53:20;;;;;;;;;13.75;11.75;;;;;;;;5056839;28;45497;-47
2021/12/14 02:55:46;;;;;;;;;16.00;16.00;;;;;;;;5056794;28;45382;-47
2021/12/14 02:58:11;;;;;;;;;10.25;10.00;;;;;;;;5056372;28;45284;-49
2021/12/14 03:00:46;;;;;;;;;15.25;12.75;;;;;;;;5056696;28;45569;-48
2021/12/14 03:03:11;;;;;;;;;11.75;11.25;;;;;;;;5056710;28;45726;-48
2021/12/14 03:05:38;;;;;;;;;11.75;11.75;;;;;;;;5056583;28;45242;-45
2021/12/14 03:08:07;;;;;;;;;12.75;12.00;;;;;;;;5056749;28;45287;-45
2021/12/14 03:10:51;;;;;;;;;13.00;12.25;;;;;;;;5056367;28;45424;-48
2021/12/14 03:13:17;;;;;;;;;13.75;11.75;;;;;;;;5056582;28;46261;-47
2021/12/14 03:15:48;;;;;;;;;13.50;13.25;;;;;;;;5056531;28;45414;-51
2021/12/14 03:18:16;;;;;;;;;16.00;12.00;;;;;;;;5056677;28;45214;-46
2021/12/14 03:20:43;;;;;;;;;12.25;9.00;;;;;;;;5056003;28;45410;-45
2021/12/14 03:23:16;;;;;;;;;13.00;12.25;;;;;;;;5056548;28;46537;-46
2021/12/14 03:25:46;;;;;;;;;17.50;13.00;;;;;;;;5056303;28;45507;-47
2021/12/14 03:28:12;;;;;;;;;14.75;11.25;;;;;;;;5056453;28;45300;-49
2021/12/14 03:30:43;;;;;;;;;16.25;14.25;;;;;;;;5056333;28;45370;-49
2021/12/14 03:33:17;;;;;;;;;13.75;12.25;;;;;;;;5055695;28;46340;-48
2021/12/14 03:35:44;;;;;;;;;13.50;12.25;;;;;;;;5055760;28;45496;-47
2021/12/14 03:38:30;;;;;;;;;18.25;16.25;;;;;;;;5061738;28;45293;-49
2021/12/14 03:41:01;;;;;;;;;12.00;12.00;;;;;;;;5055780;28;45629;-45
2021/12/14 03:43:27;;;;;;;;;12.25;12.00;;;;;;;;5055689;28;46089;-47
2021/12/14 03:45:53;;;;;;;;;13.75;13.00;;;;;;;;5056348;28;45284;-48
2021/12/14 03:48:20;;;;;;;;;16.00;16.00;;;;;;;;5056366;28;45338;-46
2021/12/14 03:50:45;;;;;;;;;18.00;13.50;;;;;;;;5056574;28;45387;-48
2021/12/14 03:53:12;;;;;;;;;18.50;14.75;;;;;;;;5055482;28;46200;-47
2021/12/14 03:55:40;;;;;;;;;8.75;8.50;;;;;;;;5056188;28;45216;-47
2021/12/14 03:58:15;;;;;;;;;20.50;16.75;;;;;;;;5056294;28;45322;-49
2021/12/14 04:00:44;;;;;;;;;17.25;14.25;;;;;;;;5056142;28;45452;-51
2021/12/14 04:03:11;;;;;;;;;13.75;12.50;;;;;;;;5055915;28;45386;-48
2021/12/14 04:05:38;;;;;;;;;16.00;15.25;;;;;;;;5055257;28;45260;-48
2021/12/14 04:08:03;;;;;;;;;18.00;18.00;;;;;;;;5055860;28;45410;-51
2021/12/14 04:10:30;;;;;;;;;13.50;13.25;;;;;;;;5055834;28;45311;-46
2021/12/14 04:12:56;;;;;;;;;20.50;17.00;;;;;;;;5056026;28;46271;-45
2021/12/14 04:15:21;;;;;;;;;17.25;16.50;;;;;;;;5055381;28;45457;-48
2021/12/14 04:17:47;;;;;;;;;17.00;17.00;;;;;;;;5055969;28;45415;-47
2021/12/14 04:20:14;;;;;;;;;19.50;19.50;;;;;;;;5055827;28;45345;-50
2021/12/14 04:22:40;;;;;;;;;21.75;17.25;;;;;;;;5054536;28;46658;-49
2021/12/14 04:25:07;;;;;;;;;17.75;17.75;;;;;;;;5055517;28;45616;-48
2021/12/14 04:27:33;;;;;;;;;18.25;16.50;;;;;;;;5055304;28;45195;-48
2021/12/14 04:29:59;;;;;;;;;16.75;15.75;;;;;;;;5055809;28;45633;-48
2021/12/14 04:32:25;;;;;;;;;15.75;15.50;;;;;;;;5055645;28;46533;-46
2021/12/14 04:34:52;;;;;;;;;17.00;14.75;;;;;;;;5055563;28;45347;-50
2021/12/14 04:37:19;;;;;;;;;22.25;19.00;;;;;;;;5055319;28;45315;-50
2021/12/14 04:39:50;;;;;;;;;19.00;16.50;;;;;;;;5055510;28;45393;-48
2021/12/14 04:53:30;;;;;;;;;20.00;18.50;;;;;;;;5058774;28;45356;-48
2021/12/14 04:55:56;;;;;;;;;23.25;18.75;;;;;;;;5058742;28;45385;-46
2021/12/14 04:58:26;;;;;;;;;17.00;16.75;;;;;;;;5058813;28;45498;-46
2021/12/14 05:00:51;;;;;;;;;22.00;17.00;;;;;;;;5058168;28;45567;-49
2021/12/14 05:03:19;;;;;;;;;22.50;20.25;;;;;;;;5058680;28;45509;-49
2021/12/14 05:05:50;;;;;;;;;29.50;23.75;;;;;;;;5074183;28;45340;-48
2021/12/14 05:10:44;;;;;;;;;22.25;21.00;;;;;;;;5058012;28;45402;-47
2021/12/14 05:13:10;;;;;;;;;16.25;16.25;;;;;;;;5058406;28;46469;-49
2021/12/14 05:15:36;;;;;;;;;23.75;21.75;;;;;;;;5058389;28;45463;-47
2021/12/14 05:18:01;;;;;;;;;25.25;21.50;;;;;;;;5058477;28;45464;-46
2021/12/14 05:20:27;;;;;;;;;23.00;21.75;;;;;;;;5058302;28;45602;-47
2021/12/14 05:22:52;;;;;;;;;24.00;23.75;;;;;;;;5057682;28;45459;-49
2021/12/14 05:25:21;;;;;;;;;22.75;21.75;;;;;;;;5058453;28;45418;-46
2021/12/14 05:27:48;;;;;;;;;25.25;24.00;;;;;;;;5058577;28;45329;-45
2021/12/14 05:30:24;;;;;;;;;24.25;23.25;;;;;;;;5058275;28;45248;-46
2021/12/14 05:32:55;;;;;;;;;21.75;19.50;;;;;;;;5057616;28;45450;-48
2021/12/14 05:35:20;;;;;;;;;24.50;22.00;;;;;;;;5058310;28;45354;-48
2021/12/14 05:37:49;;;;;;;;;25.25;24.00;;;;;;;;5058098;28;45348;-47
2021/12/14 05:40:24;;;;;;;;;18.75;17.00;;;;;;;;5058146;28;45541;-46
2021/12/14 05:43:06;;;;;;;;;27.75;19.50;;;;;;;;5073327;27;47342;-46
2021/12/14 05:45:32;;;;;;;;;23.25;23.25;;;;;;;;5057817;28;45465;-44
2021/12/14 05:47:59;;;;;;;;;23.00;21.50;;;;;;;;5057850;28;45428;-47
2021/12/14 05:50:33;;;;;;;;;22.00;21.00;;;;;;;;5058114;28;45584;-49
2021/12/14 05:52:59;;;;;;;;;22.50;19.00;;;;;;;;5057860;28;46243;-47
2021/12/14 05:55:29;;;;;;;;;23.00;23.00;;;;;;;;5057399;28;45349;-48
2021/12/14 05:57:55;;;;;;;;;22.75;19.50;;;;;;;;5057859;28;45251;-47
2021/12/14 06:00:21;;;;;;;;;20.25;18.25;;;;;;;;5065966;27;45548;-48
2021/12/14 06:02:47;;;;;;;;;22.75;19.00;;;;;;;;5066653;27;45431;-46
2021/12/14 06:05:14;;;;;;;;;19.75;19.00;;;;;;;;5057360;28;45533;-46
2021/12/14 06:07:39;;;;;;;;;18.50;18.50;;;;;;;;5057851;28;45436;-48
2021/12/14 06:10:05;;;;;;;;;26.75;23.25;;;;;;;;5057603;28;45581;-46
2021/12/14 06:12:31;;;;;;;;;22.50;22.50;;;;;;;;5057626;28;46624;-47
2021/12/14 06:14:59;;;;;;;;;21.50;19.00;;;;;;;;5057850;28;45471;-46
2021/12/14 06:17:44;;;;;;;;;24.25;19.75;;;;;;;;5077034;27;45312;-50
2021/12/14 06:20:15;;;;;;;;;21.00;20.50;;;;;;;;5076994;27;45551;-49
2021/12/14 06:22:41;;;;;;;;;23.75;20.00;;;;;;;;5077691;27;45418;-47
2021/12/14 06:25:14;;;;;;;;;25.25;21.25;;;;;;;;5077612;27;45439;-48
2021/12/14 06:27:40;;;;;;;;;17.50;16.50;;;;;;;;5077173;27;45181;-48
2021/12/14 06:30:16;;;;;;;;;24.25;22.75;;;;;;;;5075913;27;45430;-45
2021/12/14 06:32:44;;;;;;;;;22.00;22.00;;;;;;;;5077226;27;46444;-47
2021/12/14 06:35:11;;;;;;;;;31.75;25.75;;;;;;;;5077116;27;45390;-46
2021/12/14 06:40:29;;;;;;;;;25.50;22.25;;;;;;;;5077373;27;45208;-48
2021/12/14 06:42:59;;;;;;;;;25.50;17.25;;;;;;;;5077154;27;46315;-48
2021/12/14 06:45:26;;;;;;;;;17.50;16.00;;;;;;;;5075821;27;45413;-46
2021/12/14 06:47:53;;;;;;;;;24.25;21.00;;;;;;;;5076961;27;45460;-49
2021/12/14 06:50:22;;;;;;;;;23.75;20.75;;;;;;;;5057291;27;45308;-49
2021/12/14 06:52:58;;;;;;;;;26.75;21.50;;;;;;;;5056681;28;45324;-47
2021/12/14 06:55:24;;;;;;;;;18.00;17.25;;;;;;;;5073183;27;45436;-51
2021/12/14 06:57:50;;;;;;;;;22.00;19.00;;;;;;;;5077230;28;45421;-46
2021/12/14 07:00:16;;;;;;;;;20.50;14.00;;;;;;;;5076348;28;45338;-47
2021/12/14 07:02:45;;;;;;;;;22.25;18.00;;;;;;;;5081085;27;46353;-49
2021/12/14 07:05:18;;;;;;;;;23.25;22.00;;;;;;;;5086968;27;45365;-49
2021/12/14 07:07:43;;;;;;;;;21.50;18.25;;;;;;;;5079480;27;45248;-45
2021/12/14 07:10:09;;;;;;;;;22.00;19.50;;;;;;;;5072125;28;45671;-46
2021/12/14 07:12:35;;;;;;;;;19.25;17.75;;;;;;;;5075401;27;45795;-48
2021/12/14 07:15:09;;;;;;;;;16.25;15.50;;;;;;;;5076837;27;45311;-46
2021/12/14 07:17:44;;;;;;;;;19.25;17.00;;;;;;;;5076772;27;45393;-46
2021/12/14 07:20:18;;;;;;;;;21.50;20.50;;;;;;;;5076739;27;45378;-47
2021/12/14 07:22:53;;;;;;;;;23.00;21.75;;;;;;;;5075876;27;45404;-47
2021/12/14 07:25:36;;;;;;;;;21.00;18.25;;;;;;;;5058228;28;45418;-50
2021/12/14 07:28:04;;;;;;;;;22.50;18.00;;;;;;;;5056391;28;45363;-48
2021/12/14 07:30:32;;;;;;;;;24.00;19.50;;;;;;;;5056307;28;45543;-46
2021/12/14 07:33:00;;;;;;;;;22.75;22.25;;;;;;;;5055997;28;45380;-47
2021/12/14 07:35:41;;;;;;;;;22.75;22.75;;;;;;;;5071162;27;45426;-47
2021/12/14 07:38:15;;;;;;;;;22.75;20.50;;;;;;;;5071813;27;45352;-47
2021/12/14 07:40:41;;;;;;;;;21.50;20.50;;;;;;;;5059494;27;45279;-49
2021/12/14 07:43:12;;;;;;;;;21.75;18.75;;;;;;;;5071908;27;46716;-50
2021/12/14 07:45:37;;;;;;;;;22.00;21.00;;;;;;;;5055814;28;45350;-46
2021/12/14 07:48:03;;;;;;;;;24.50;23.00;;;;;;;;5066909;28;45375;-47
2021/12/14 07:50:43;;;;;;;;;21.75;21.25;;;;;;;;5076325;27;45283;-50
2021/12/14 07:53:08;;;;;;;;;22.50;21.50;;;;;;;;5075206;27;45605;-49
2021/12/14 07:55:36;;;;;;;;;21.00;20.50;;;;;;;;5068759;27;45532;-46
2021/12/14 07:58:02;;;;;;;;;22.75;20.50;;;;;;;;5076006;28;45416;-47
2021/12/14 08:00:35;;;;;;;;;28.00;22.00;;;;;;;;5074496;28;45560;-49
2021/12/14 08:03:01;;;;;;;;;27.75;22.25;;;;;;;;5063647;28;45982;-50
2021/12/14 08:05:27;;;;;;;;;21.00;18.00;;;;;;;;5054192;28;45892;-48
2021/12/14 08:08:09;;;;;;;;;27.75;25.25;;;;;;;;5064718;28;45202;-55
2021/12/14 08:10:38;;;;;;;;;22.50;21.25;;;;;;;;5074172;27;45554;-55
2021/12/14 08:13:03;;;;;;;;;20.75;20.25;;;;;;;;5074915;27;45511;-55
2021/12/14 08:15:31;;;;;;;;;27.50;21.75;;;;;;;;5062305;27;45453;-53
2021/12/14 08:18:01;;;;;;;;;20.25;18.50;;;;;;;;5073901;27;45421;-55
2021/12/14 08:20:26;;;;;;;;;22.50;17.75;;;;;;;;5075368;28;45480;-48
2021/12/14 08:22:53;;;;;;;;;27.00;25.25;;;;;;;;5069268;28;45346;-51
2021/12/14 08:25:22;;;;;;;;;22.25;20.75;;;;;;;;5063793;28;45371;-53
2021/12/14 08:27:55;;;;;;;;;22.50;20.00;;;;;;;;5075022;28;45501;-51
2021/12/14 08:30:21;;;;;;;;;29.25;25.25;;;;;;;;5058895;28;45245;-50
2021/12/14 08:32:48;;;;;;;;;22.50;22.25;;;;;;;;5062806;28;45811;-51
2021/12/14 08:35:14;;;;;;;;;26.25;22.75;;;;;;;;5078989;27;45456;-51
2021/12/14 08:37:43;;;;;;;;;25.25;21.50;;;;;;;;5078922;28;45350;-51
2021/12/14 08:40:08;;;;;;;;;27.00;26.50;;;;;;;;5076147;28;45511;-50
2021/12/14 08:42:41;;;;;;;;;29.50;26.00;;;;;;;;5078449;27;45362;-48
2021/12/14 08:45:25;;;;;;;;;25.75;25.00;;;;;;;;5071384;27;45465;-49
2021/12/14 08:47:52;;;;;;;;;27.25;23.50;;;;;;;;5058640;28;45379;-48
2021/12/14 08:50:18;;;;;;;;;26.25;24.25;;;;;;;;5058084;28;45600;-47
2021/12/14 08:52:43;;;;;;;;;24.00;23.50;;;;;;;;5058631;28;45366;-48
2021/12/14 08:55:10;;;;;;;;;26.00;24.75;;;;;;;;5058637;28;45385;-48
2021/12/14 08:57:37;;;;;;;;;26.50;20.00;;;;;;;;5058842;28;45281;-47
2021/12/14 09:00:12;;;;;;;;;25.00;22.50;;;;;;;;5058541;28;45370;-50
2021/12/14 09:02:37;;;;;;;;;29.50;25.75;;;;;;;;5057918;28;47098;-47
2021/12/14 09:05:05;;;;;;;;;27.75;23.50;;;;;;;;5058333;28;45961;-49
2021/12/14 09:07:31;;;;;;;;;32.75;29.25;;;;;;;;5058738;28;45316;-46
2021/12/14 09:09:57;;;;;;;;;30.25;28.75;;;;;;;;5058271;28;45329;-47
2021/12/14 09:12:26;;;;;;;;;23.25;20.50;;;;;;;;5057843;28;46668;-47
2021/12/14 09:14:53;;;;;;;;;27.25;24.50;;;;;;;;5058283;28;45269;-49
2021/12/14 09:17:21;;;;;;;;;28.50;24.25;;;;;;;;5058316;28;45257;-47
2021/12/14 09:19:49;;;;;;;;;23.25;20.50;;;;;;;;5058206;28;45274;-45
2021/12/14 09:22:20;;;;;;;;;24.00;21.00;;;;;;;;5058046;28;45408;-49
2021/12/14 09:24:45;;;;;;;;;29.75;23.25;;;;;;;;5057536;28;45375;-49
2021/12/14 09:27:14;;;;;;;;;27.00;23.50;;;;;;;;5058161;28;45417;-49
2021/12/14 09:29:40;;;;;;;;;23.25;23.25;;;;;;;;5058116;28;45670;-46
2021/12/14 09:32:08;;;;;;;;;30.25;26.50;;;;;;;;5058081;28;45256;-52
2021/12/14 09:34:35;;;;;;;;;23.75;22.00;;;;;;;;5056104;28;45284;-49
2021/12/14 09:37:01;;;;;;;;;24.50;24.25;;;;;;;;5058207;28;45413;-51
2021/12/14 09:39:34;;;;;;;;;20.75;18.75;;;;;;;;5057992;28;45666;-51
2021/12/14 09:42:01;;;;;;;;;24.25;21.50;;;;;;;;5057527;28;46414;-53
2021/12/14 09:44:27;;;;;;;;;24.25;18.00;;;;;;;;5057852;28;45342;-47
2021/12/14 09:46:55;;;;;;;;;30.75;28.50;;;;;;;;5056222;28;45169;-48
2021/12/14 09:49:20;;;;;;;;;28.00;23.75;;;;;;;;5057906;28;45288;-47
2021/12/14 09:51:55;;;;;;;;;33.00;27.00;;;;;;;;5057596;28;45286;-48
2021/12/14 09:54:22;;;;;;;;;29.00;24.00;;;;;;;;5057428;28;45339;-48
2021/12/14 09:56:53;;;;;;;;;27.00;24.00;;;;;;;;5057197;28;45354;-51
2021/12/14 09:59:18;;;;;;;;;26.50;26.50;;;;;;;;5057572;28;45251;-48
2021/12/14 10:01:47;;;;;;;;;27.25;24.00;;;;;;;;5057324;28;45361;-49
2021/12/14 10:04:18;;;;;;;;;30.75;30.75;;;;;;;;5057437;28;45576;-48
2021/12/14 10:06:44;;;;;;;;;24.25;23.00;;;;;;;;5057614;28;45281;-49
2021/12/14 10:09:13;;;;;;;;;23.50;23.50;;;;;;;;5057091;28;45656;-48
2021/12/14 10:11:48;;;;;;;;;28.00;25.00;;;;;;;;5057124;28;47056;-47
2021/12/14 10:14:14;;;;;;;;;27.50;25.75;;;;;;;;5057514;28;45327;-49
2021/12/14 10:16:39;;;;;;;;;28.75;23.75;;;;;;;;5056090;28;45260;-47
2021/12/14 10:19:08;;;;;;;;;30.75;24.50;;;;;;;;5056820;28;45298;-47
2021/12/14 10:21:36;;;;;;;;;32.25;25.25;;;;;;;;5056896;28;45586;-49
2021/12/14 10:24:03;;;;;;;;;31.50;26.25;;;;;;;;5057219;28;45422;-49
2021/12/14 10:26:30;;;;;;;;;31.50;29.25;;;;;;;;5057092;28;45398;-52
2021/12/14 10:28:56;;;;;;;;;33.00;30.00;;;;;;;;5056522;28;45547;-49
2021/12/14 10:31:27;;;;;;;;;30.75;27.50;;;;;;;;5056310;28;46238;-47
2021/12/14 10:33:56;;;;;;;;;33.25;30.00;;;;;;;;5056889;28;45430;-50
2021/12/14 10:36:32;;;;;;;;;21.75;21.75;;;;;;;;5057176;28;45441;-49
2021/12/14 10:44:26;;;;;;;;;20.25;19.25;;;;;;;;5057147;28;45327;-49
2021/12/14 10:46:52;;;;;;;;;33.25;30.75;;;;;;;;5056409;28;45354;-51
2021/12/14 10:49:19;;;;;;;;;35.25;32.50;;;;;;;;5056802;28;45485;-51
2021/12/14 10:51:46;;;;;;;;;28.75;26.75;;;;;;;;5056120;28;46128;-47
2021/12/14 10:54:13;;;;;;;;;32.00;27.75;;;;;;;;5056543;28;45400;-51
2021/12/14 10:56:50;;;;;;;;;32.75;29.75;;;;;;;;5056593;28;45409;-49
2021/12/14 10:59:17;;;;;;;;;35.50;31.00;;;;;;;;5056757;28;45455;-48
2021/12/14 11:01:49;;;;;;;;;33.25;31.25;;;;;;;;5056097;28;45305;-48
2021/12/14 11:04:15;;;;;;;;;32.25;30.75;;;;;;;;5054236;28;45391;-50
2021/12/14 11:06:44;;;;;;;;;37.00;35.00;;;;;;;;5056517;28;45485;-49
2021/12/14 11:11:38;;;;;;;;;34.00;33.75;;;;;;;;5056246;28;45431;-46
2021/12/14 11:14:08;;;;;;;;;33.25;31.75;;;;;;;;5055626;28;45347;-49
2021/12/14 11:19:29;;;;;;;;;41.50;34.00;;;;;;;;5056113;28;45248;-51
2021/12/14 11:22:06;;;;;;;;;34.75;32.75;;;;;;;;5054565;28;47427;-49
2021/12/14 11:24:32;;;;;;;;;33.00;31.50;;;;;;;;5055622;28;45274;-49
2021/12/14 11:26:57;;;;;;;;;41.25;38.25;;;;;;;;5056024;28;45442;-47
2021/12/14 11:29:23;;;;;;;;;66.75;52.75;;;;;;;;5054644;28;45413;-48
2021/12/14 11:31:50;;;;;;;;;44.00;36.75;;;;;;;;5055890;28;45393;-46
2021/12/14 11:34:17;;;;;;;;;39.75;37.00;;;;;;;;5055849;28;45398;-46
2021/12/14 11:36:43;;;;;;;;;41.50;36.75;;;;;;;;5055548;28;45382;-48
2021/12/14 11:39:11;;;;;;;;;32.75;27.75;;;;;;;;5056048;28;45196;-47
2021/12/14 11:41:50;;;;;;;;;37.00;30.00;;;;;;;;5054108;28;45379;-45
2021/12/14 11:44:19;;;;;;;;;44.75;39.00;;;;;;;;5055633;28;45558;-49
2021/12/14 11:47:00;;;;;;;;;41.25;35.00;;;;;;;;5055453;28;45359;-47
2021/12/14 11:49:45;;;;;;;;;45.00;38.50;;;;;;;;5054343;28;45517;-49
2021/12/14 11:52:11;;;;;;;;;49.75;36.50;;;;;;;;5044485;28;45419;-49
2021/12/14 11:54:45;;;;;;;;;45.00;35.75;;;;;;;;5055523;28;45401;-52
2021/12/14 11:57:11;;;;;;;;;41.50;36.25;;;;;;;;5055215;28;45315;-47
2021/12/14 11:59:36;;;;;;;;;38.25;35.25;;;;;;;;5059431;28;45499;-50
2021/12/14 12:02:02;;;;;;;;;45.75;38.50;;;;;;;;5059011;28;45379;-47
2021/12/14 12:04:36;;;;;;;;;45.75;36.00;;;;;;;;5059247;28;45203;-47
2021/12/14 12:09:36;;;;;;;;;35.25;33.50;;;;;;;;5058648;28;45263;-50
2021/12/14 12:12:07;;;;;;;;;36.25;32.75;;;;;;;;5058931;28;45410;-49
2021/12/14 12:14:38;;;;;;;;;37.25;35.00;;;;;;;;5059441;28;45440;-47
2021/12/14 12:17:06;;;;;;;;;35.00;32.75;;;;;;;;5059439;28;45240;-51
2021/12/14 12:19:32;;;;;;;;;51.75;41.25;;;;;;;;5058416;28;45463;-49
2021/12/14 12:22:04;;;;;;;;;41.50;38.25;;;;;;;;5058568;28;46094;-46
2021/12/14 12:24:45;;;;;;;;;44.75;37.75;;;;;;;;5061025;27;45511;-50
2021/12/14 12:27:35;;;;;;;;;37.50;36.00;;;;;;;;5074492;27;45457;-47
2021/12/14 12:30:15;;;;;;;;;35.75;31.25;;;;;;;;5070758;28;45291;-53
2021/12/14 12:32:40;;;;;;;;;42.25;38.00;;;;;;;;5073165;27;45536;-49
2021/12/14 12:35:26;;;;;;;;;37.25;34.25;;;;;;;;5078735;27;45393;-48
2021/12/14 12:37:51;;;;;;;;;37.50;34.50;;;;;;;;5072001;28;45367;-49
2021/12/14 12:40:18;;;;;;;;;38.75;35.50;;;;;;;;5067696;28;45398;-46
2021/12/14 12:42:44;;;;;;;;;37.75;36.00;;;;;;;;5077923;27;46651;-47
2021/12/14 12:45:33;;;;;;;;;36.25;31.25;;;;;;;;5073869;27;45442;-46
2021/12/14 12:48:01;;;;;;;;;49.00;40.00;;;;;;;;5058938;28;45293;-49
2021/12/14 12:50:26;;;;;;;;;33.75;32.00;;;;;;;;5057395;28;45613;-51
2021/12/14 12:52:52;;;;;;;;;46.25;38.25;;;;;;;;5066188;27;45422;-48
2021/12/14 12:55:20;;;;;;;;;44.50;36.00;;;;;;;;5078810;27;45393;-47
2021/12/14 12:57:47;;;;;;;;;43.25;37.50;;;;;;;;5078754;27;45368;-50
2021/12/14 13:00:12;;;;;;;;;42.00;35.50;;;;;;;;5078778;28;45581;-50
2021/12/14 13:02:37;;;;;;;;;47.25;39.25;;;;;;;;5078516;28;45486;-46
2021/12/14 13:05:02;;;;;;;;;44.40;38.60;;;;;;;;5068962;28;45501;-46
2021/12/14 13:07:32;;;;;;;;;47.00;39.25;;;;;;;;5073102;28;45729;-47
2021/12/14 13:09:59;;;;;;;;;42.50;39.50;;;;;;;;5077969;27;45188;-53
2021/12/14 13:12:41;;;;;;;;;38.25;35.50;;;;;;;;5078374;27;45328;-51
2021/12/14 13:15:25;;;;;;;;;43.50;36.50;;;;;;;;5078116;27;45389;-54
2021/12/14 13:17:50;;;;;;;;;34.50;33.00;;;;;;;;5078052;28;45373;-53
2021/12/14 13:20:15;;;;;;;;;41.50;37.00;;;;;;;;5078723;28;45560;-52
2021/12/14 13:22:47;;;;;;;;;47.75;38.50;;;;;;;;5078366;27;45441;-53
2021/12/14 13:25:12;;;;;;;;;48.75;38.00;;;;;;;;5078037;28;45484;-51
2021/12/14 13:27:38;;;;;;;;;39.75;36.00;;;;;;;;5077764;27;45352;-53
2021/12/14 13:30:06;;;;;;;;;35.50;31.25;;;;;;;;5078582;27;45588;-53
2021/12/14 13:32:35;;;;;;;;;44.25;38.00;;;;;;;;5078216;27;46328;-52
2021/12/14 13:35:00;;;;;;;;;44.25;36.00;;;;;;;;5078325;27;45391;-50
2021/12/14 13:37:28;;;;;;;;;32.25;32.25;;;;;;;;5077858;27;45286;-53
2021/12/14 13:39:54;;;;;;;;;35.25;34.00;;;;;;;;5078135;27;45370;-50
2021/12/14 13:42:28;;;;;;;;;44.25;37.75;;;;;;;;5077726;27;46450;-54
2021/12/14 13:44:53;;;;;;;;;42.75;38.00;;;;;;;;5078404;27;45404;-52
2021/12/14 13:47:20;;;;;;;;;43.00;38.50;;;;;;;;5077816;28;45392;-53
2021/12/14 13:49:46;;;;;;;;;45.25;39.00;;;;;;;;5078396;27;45405;-50
2021/12/14 13:52:13;;;;;;;;;48.00;39.50;;;;;;;;5078069;27;45378;-53
2021/12/14 13:54:57;;;;;;;;;43.75;37.75;;;;;;;;5077984;27;45302;-53
2021/12/14 13:57:22;;;;;;;;;52.75;42.25;;;;;;;;5078152;27;45376;-53
2021/12/14 13:59:48;;;;;;;;;49.00;39.75;;;;;;;;5077544;27;45495;-52
2021/12/14 14:02:14;;;;;;;;;44.50;39.00;;;;;;;;5077971;27;45318;-53
2021/12/14 14:04:39;;;;;;;;;42.50;38.00;;;;;;;;5077828;27;45430;-54
2021/12/14 14:07:04;;;;;;;;;36.75;35.25;;;;;;;;5076889;27;45224;-54
2021/12/14 14:09:30;;;;;;;;;55.50;43.75;;;;;;;;5077224;27;45260;-53
2021/12/14 14:12:01;;;;;;;;;44.00;38.00;;;;;;;;5077545;27;46398;-52
2021/12/14 14:14:33;;;;;;;;;39.50;37.75;;;;;;;;5077791;27;45268;-54
2021/12/14 14:17:00;;;;;;;;;44.50;38.00;;;;;;;;5077940;27;45498;-51
2021/12/14 14:19:37;;;;;;;;;44.00;37.25;;;;;;;;5077701;27;45304;-53
2021/12/14 14:22:04;;;;;;;;;42.75;38.75;;;;;;;;5076006;27;45428;-52
2021/12/14 14:24:32;;;;;;;;;52.50;41.50;;;;;;;;5077304;27;45542;-51
2021/12/14 14:26:58;;;;;;;;;49.50;39.75;;;;;;;;5077643;27;45405;-51
2021/12/14 14:29:24;;;;;;;;;49.00;41.75;;;;;;;;5077455;27;45614;-52
2021/12/14 14:31:50;;;;;;;;;42.75;38.00;;;;;;;;5076459;27;45686;-51
2021/12/14 14:34:18;;;;;;;;;46.00;39.75;;;;;;;;5077155;27;45298;-51
2021/12/14 14:36:45;;;;;;;;;50.00;40.00;;;;;;;;5077439;27;45429;-54
2021/12/14 14:39:15;;;;;;;;;44.25;37.25;;;;;;;;5077148;28;45184;-52
2021/12/14 14:41:51;;;;;;;;;45.75;39.50;;;;;;;;5076872;27;45357;-52
2021/12/14 14:44:20;;;;;;;;;44.25;39.25;;;;;;;;5076633;27;45348;-54
2021/12/14 14:46:54;;;;;;;;;46.25;37.75;;;;;;;;5077299;27;45299;-51
2021/12/14 14:49:25;;;;;;;;;39.25;34.75;;;;;;;;5077347;27;45295;-54
2021/12/14 14:51:53;;;;;;;;;50.00;42.50;;;;;;;;5075629;28;46253;-54
2021/12/14 14:54:31;;;;;;;;;53.25;40.75;;;;;;;;5076394;27;45281;-53
2021/12/14 14:56:56;;;;;;;;;45.50;39.25;;;;;;;;5075797;27;45276;-54
2021/12/14 14:59:22;;;;;;;;;44.25;36.00;;;;;;;;5077004;27;45184;-54
2021/12/14 15:01:47;;;;;;;;;46.75;41.00;;;;;;;;5076970;27;46788;-52
2021/12/14 15:04:12;;;;;;;;;49.75;38.25;;;;;;;;5076444;27;45295;-52
2021/12/14 15:06:39;;;;;;;;;51.00;42.25;;;;;;;;5077028;27;45327;-53
2021/12/14 15:09:05;;;;;;;;;45.50;37.25;;;;;;;;5076691;27;45381;-50
2021/12/14 15:11:40;;;;;;;;;46.00;37.75;;;;;;;;5076762;27;45374;-51
2021/12/14 15:14:08;;;;;;;;;47.75;40.75;;;;;;;;5076698;27;45430;-51